Terminal Aerodrome Forecast
Issued by NWS

Home | Current Version | Previous Version | Text Only | Print | Product List | Glossary On
Versions: 1 2 3 4 5 6 7 8 9 10 11 12 13
000
FTUS45 KGGW 230500
TAFSDY
TAF
KSDY 230523Z 2306/2406 VRB04KT P6SM SCT050 BKN250
     FM231600 14011G17KT P6SM SCT250
     FM232200 14020G28KT P6SM BKN250
     FM240200 13012G18KT P6SM VCSH SCT070 BKN250
      AMD LTD TO CLD VIS AND WIND=

USA.gov is the U.S. government's official web portal to all federal, state and local government web resources and services.